Paul, Alabama
Current Conditions -  °F | °C
As of 12:53 PM on Thursday 18 Dec 2014 (Local Time) from KGZH Reporting Station
Broken Clouds Broken Clouds  
Wind Chill: 62°   Ceiling: 11000
Heat Index: 62°   Visibility: 10mi
Dew Point: 31°   Wind: 0mph
Humidity: 31%   Direction: NA
Pressure: 30.14"   Gusts: NA
Location:  31.32°N, 86.7439°W
Report Text: KGZH 181853Z AUTO 00000KT 10SM BKN110 17/M01 A3014 RMK AO2 SLP204 T01671006
Loading
Personal Weather Stations






























Interactive Weather Map New forecast layout! Learn more

10-Day Weather Forecast

Advertisements
Track Severe Weather on mobile